createdAt,value
2023-05-01T00:00:01.322Z,608.92
2023-05-01T00:01:00.947Z,589.47
2023-05-01T00:02:00.970Z,566.36
2023-05-01T00:03:01.061Z,569.76
2023-05-01T00:04:01.184Z,559.68
2023-05-01T00:05:01.020Z,562.04
2023-05-01T00:06:00.908Z,553.15
2023-05-01T00:07:00.887Z,567.81
2023-05-01T00:08:00.882Z,555.46
2023-05-01T00:09:00.870Z,522.69
2023-05-01T00:10:00.870Z,516.19
2023-05-01T00:11:00.827Z,536.62
2023-05-01T00:12:00.837Z,534.46
2023-05-01T00:13:00.828Z,548.13
2023-05-01T00:14:00.827Z,551.32
2023-05-01T00:15:00.784Z,556.86
2023-05-01T00:16:00.785Z,545.88
2023-05-01T00:17:00.772Z,568.29
2023-05-01T00:18:00.791Z,587.39
2023-05-01T00:19:00.744Z,572.21
2023-05-01T00:20:00.787Z,541.87
2023-05-01T00:21:00.748Z,541.43
2023-05-01T00:22:00.763Z,556.86
2023-05-01T00:23:00.705Z,570.24
2023-05-01T00:24:00.732Z,587.91
2023-05-01T00:25:00.696Z,587.91
2023-05-01T00:26:00.716Z,598.50
2023-05-01T00:27:00.679Z,594.22
2023-05-01T00:28:00.662Z,592.63
2023-05-01T00:29:00.646Z,588.95
2023-05-01T00:30:00.635Z,583.26
2023-05-01T00:31:00.642Z,571.72
2023-05-01T00:32:00.670Z,566.84
2023-05-01T00:33:00.672Z,568.29
2023-05-01T00:34:00.613Z,557.33
2023-05-01T00:35:00.607Z,539.23
2023-05-01T00:36:00.610Z,554.07
2023-05-01T00:37:00.598Z,559.21
2023-05-01T00:38:00.571Z,542.31
2023-05-01T00:39:00.568Z,546.78
2023-05-01T00:40:00.572Z,557.80
2023-05-01T00:41:00.534Z,550.86
2023-05-01T00:42:00.563Z,525.17
2023-05-01T00:43:00.515Z,505.58
2023-05-01T00:44:00.542Z,511.42
2023-05-01T00:45:00.511Z,522.69
2023-05-01T00:46:00.538Z,515.39
2023-05-01T00:47:00.470Z,499.50
2023-05-01T00:48:00.591Z,494.67
2023-05-01T00:49:00.450Z,502.90
2023-05-01T00:50:00.471Z,509.85
2023-05-01T00:51:00.448Z,509.46
2023-05-01T00:52:00.438Z,526.00
2023-05-01T00:53:00.419Z,532.75
2023-05-01T00:54:00.421Z,530.20
2023-05-01T00:55:00.415Z,510.63
2023-05-01T00:56:00.383Z,501.01
2023-05-01T00:57:00.386Z,504.81
2023-05-01T00:58:00.411Z,520.64
2023-05-01T00:59:00.358Z,568.78
2023-05-01T01:00:00.374Z,585.32
2023-05-01T01:01:00.354Z,607.25
2023-05-01T01:02:00.330Z,613.42
2023-05-01T01:03:00.343Z,591.04
2023-05-01T01:04:00.338Z,591.04
2023-05-01T01:05:00.342Z,565.39
2023-05-01T01:06:00.330Z,541.43
2023-05-01T01:07:00.308Z,525.58
2023-05-01T01:08:00.272Z,513.79
2023-05-01T01:09:00.272Z,514.59
2023-05-01T01:10:00.263Z,513.00
2023-05-01T01:11:00.268Z,495.03
2023-05-01T01:12:00.241Z,472.84
2023-05-01T01:13:00.226Z,462.95
2023-05-01T01:14:00.226Z,478.63
2023-05-01T01:15:00.200Z,483.15
2023-05-01T01:16:00.223Z,490.28
2023-05-01T01:17:00.243Z,495.40
2023-05-01T01:18:00.211Z,480.70
2023-05-01T01:19:00.162Z,496.51
2023-05-01T01:20:00.158Z,491.37
2023-05-01T01:21:00.164Z,501.01
2023-05-01T01:22:00.131Z,496.14
2023-05-01T01:23:00.166Z,488.48
2023-05-01T01:24:00.152Z,477.60
2023-05-01T01:25:00.142Z,488.84
2023-05-01T01:26:00.210Z,463.27
2023-05-01T01:27:00.097Z,441.42
2023-05-01T01:28:00.091Z,434.77
2023-05-01T01:29:00.061Z,442.60
2023-05-01T01:30:00.069Z,454.09
2023-05-01T01:31:00.090Z,441.12
2023-05-01T01:32:00.117Z,432.23
2023-05-01T01:33:00.092Z,422.61
2023-05-01T01:34:00.007Z,421.27
2023-05-01T01:34:59.994Z,446.46
2023-05-01T01:36:00.051Z,434.77
2023-05-01T01:37:00.007Z,429.16
2023-05-01T01:37:59.979Z,445.86
2023-05-01T01:38:59.977Z,448.27
2023-05-01T01:39:59.974Z,430.83
2023-05-01T01:40:59.957Z,455.65
2023-05-01T01:41:59.972Z,468.83
2023-05-01T01:42:59.918Z,486.69
2023-05-01T01:43:59.955Z,495.40
2023-05-01T01:44:59.902Z,479.66
2023-05-01T01:45:59.918Z,466.20
2023-05-01T01:46:59.901Z,460.70
2023-05-01T01:47:59.942Z,452.54
2023-05-01T01:48:59.864Z,442.60
2023-05-01T01:49:59.853Z,430.55
2023-05-01T01:50:59.867Z,436.77
2023-05-01T01:51:59.831Z,441.42
2023-05-01T01:52:59.844Z,472.84
2023-05-01T01:53:59.831Z,493.93
2023-05-01T01:54:59.816Z,494.67
2023-05-01T01:56:01.745Z,484.56
2023-05-01T01:56:59.810Z,464.89
2023-05-01T01:57:59.775Z,455.02
2023-05-01T01:58:59.763Z,459.11
2023-05-01T01:59:59.793Z,459.11
2023-05-01T02:00:59.737Z,473.17
2023-05-01T02:01:59.769Z,479.32
2023-05-01T02:02:59.807Z,485.27
2023-05-01T02:03:59.896Z,480.01
2023-05-01T02:04:59.718Z,460.39
2023-05-01T02:05:59.738Z,450.09
2023-05-01T02:06:59.681Z,437.64
2023-05-01T02:07:59.735Z,455.34
2023-05-01T02:08:59.663Z,474.52
2023-05-01T02:09:59.677Z,481.75
2023-05-01T02:11:01.859Z,483.86
2023-05-01T02:11:59.661Z,479.32
2023-05-01T02:12:59.626Z,479.66
2023-05-01T02:13:59.617Z,484.92
2023-05-01T02:14:59.641Z,477.94
2023-05-01T02:15:59.671Z,474.52
2023-05-01T02:16:59.592Z,468.83
2023-05-01T02:17:59.623Z,468.17
2023-05-01T02:19:00.018Z,467.51
2023-05-01T02:19:59.568Z,488.12
2023-05-01T02:20:59.559Z,501.76
2023-05-01T02:21:59.583Z,485.62
2023-05-01T02:22:59.531Z,486.34
2023-05-01T02:23:59.537Z,492.10
2023-05-01T02:24:59.522Z,492.46
2023-05-01T02:25:59.496Z,493.93
2023-05-01T02:26:59.533Z,485.98
2023-05-01T02:27:59.492Z,491.01
2023-05-01T02:28:59.475Z,491.01
2023-05-01T02:29:59.466Z,484.21
2023-05-01T02:30:59.473Z,497.26
2023-05-01T02:31:59.568Z,509.07
2023-05-01T02:32:59.500Z,509.85
2023-05-01T02:33:59.449Z,507.90
2023-05-01T02:34:59.424Z,521.05
2023-05-01T02:35:59.407Z,517.80
2023-05-01T02:36:59.391Z,528.51
2023-05-01T02:37:59.398Z,530.62
2023-05-01T02:38:59.385Z,530.20
2023-05-01T02:39:59.501Z,528.51
2023-05-01T02:40:59.637Z,531.89
2023-05-01T02:41:59.348Z,529.35
2023-05-01T02:42:59.340Z,528.09
2023-05-01T02:43:59.326Z,545.88
2023-05-01T02:44:59.347Z,546.78
2023-05-01T02:45:59.353Z,567.81
2023-05-01T02:46:59.313Z,580.71
2023-05-01T02:47:59.430Z,575.68
2023-05-01T02:48:59.280Z,563.47
2023-05-01T02:49:59.471Z,559.21
2023-05-01T02:50:59.250Z,580.21
2023-05-01T02:51:59.247Z,577.68
2023-05-01T02:52:59.229Z,578.69
2023-05-01T02:53:59.239Z,572.21
2023-05-01T02:54:59.220Z,558.73
2023-05-01T02:55:59.210Z,547.68
2023-05-01T02:56:59.202Z,541.87
2023-05-01T02:57:59.205Z,559.21
2023-05-01T02:58:59.174Z,563.95
2023-05-01T02:59:59.198Z,559.21
2023-05-01T03:00:59.241Z,573.20
2023-05-01T03:01:59.175Z,586.87
2023-05-01T03:02:59.188Z,587.39
2023-05-01T03:03:59.186Z,586.87
2023-05-01T03:04:59.117Z,590.00
2023-05-01T03:05:59.178Z,603.94
2023-05-01T03:06:59.110Z,611.73
2023-05-01T03:07:59.086Z,614.56
2023-05-01T03:08:59.088Z,612.29
2023-05-01T03:09:59.066Z,588.43
2023-05-01T03:10:59.073Z,586.87
2023-05-01T03:11:59.063Z,593.16
2023-05-01T03:12:59.066Z,592.10
2023-05-01T03:13:59.026Z,599.04
2023-05-01T03:14:59.012Z,600.66
2023-05-01T03:15:59.090Z,602.84
2023-05-01T03:16:58.988Z,596.35
2023-05-01T03:17:59.019Z,578.69
2023-05-01T03:18:58.986Z,589.47
2023-05-01T03:19:58.958Z,590.00
2023-05-01T03:20:58.968Z,574.68
2023-05-01T03:21:58.961Z,576.68
2023-05-01T03:22:58.959Z,576.68
2023-05-01T03:23:58.922Z,576.68
2023-05-01T03:24:58.913Z,568.78
2023-05-01T03:25:58.923Z,566.84
2023-05-01T03:26:58.856Z,566.36
2023-05-01T03:27:58.925Z,573.69
2023-05-01T03:28:58.884Z,594.22
2023-05-01T03:29:58.878Z,597.96
2023-05-01T03:30:58.853Z,611.16
2023-05-01T03:31:58.879Z,601.75
2023-05-01T03:32:58.904Z,584.29
2023-05-01T03:33:58.837Z,593.16
2023-05-01T03:34:58.831Z,583.26
2023-05-01T03:35:58.750Z,597.42
2023-05-01T03:36:58.757Z,593.16
2023-05-01T03:37:58.741Z,611.73
2023-05-01T03:38:58.772Z,612.85
2023-05-01T03:39:58.826Z,600.12
2023-05-01T03:40:58.699Z,617.99
2023-05-01T03:41:58.695Z,619.14
2023-05-01T03:42:58.695Z,629.70
2023-05-01T03:43:58.677Z,607.25
2023-05-01T03:44:58.677Z,592.10
2023-05-01T03:45:58.696Z,587.39
2023-05-01T03:46:58.660Z,593.16
2023-05-01T03:47:58.655Z,590.00
2023-05-01T03:48:58.633Z,591.04
2023-05-01T03:49:58.848Z,574.19
2023-05-01T03:50:58.645Z,557.33
2023-05-01T03:51:58.646Z,550.86
2023-05-01T03:52:58.628Z,516.99
2023-05-01T03:53:58.573Z,514.59
2023-05-01T03:54:58.593Z,509.07
2023-05-01T03:55:58.548Z,510.63
2023-05-01T03:56:58.585Z,501.76
2023-05-01T03:57:58.575Z,496.89
2023-05-01T03:58:58.540Z,467.84
2023-05-01T03:59:58.761Z,452.85
2023-05-01T04:00:58.536Z,476.57
2023-05-01T04:01:58.530Z,478.28
2023-05-01T04:02:58.717Z,481.05
2023-05-01T04:03:58.590Z,474.19
2023-05-01T04:04:58.483Z,458.48
2023-05-01T04:05:58.509Z,505.20
2023-05-01T04:06:58.450Z,511.81
2023-05-01T04:07:58.441Z,521.46
2023-05-01T04:08:58.455Z,520.23
2023-05-01T04:09:58.472Z,506.35
2023-05-01T04:10:58.404Z,507.90
2023-05-01T04:11:58.397Z,496.51
2023-05-01T04:12:58.395Z,472.84
2023-05-01T04:13:58.388Z,448.57
2023-05-01T04:14:58.379Z,438.51
2023-05-01T04:15:58.395Z,438.22
2023-05-01T04:16:58.352Z,435.34
2023-05-01T04:17:58.423Z,452.24
2023-05-01T04:18:58.362Z,471.16
2023-05-01T04:19:58.615Z,455.65
2023-05-01T04:20:58.319Z,448.27
2023-05-01T04:21:58.336Z,443.18
2023-05-01T04:22:58.290Z,426.95
2023-05-01T04:23:58.289Z,423.68
2023-05-01T04:24:58.278Z,419.67
2023-05-01T04:25:58.283Z,410.34
2023-05-01T04:26:58.251Z,403.12
2023-05-01T04:27:58.259Z,411.61
2023-05-01T04:28:58.256Z,420.73
2023-05-01T04:29:58.766Z,420.46
2023-05-01T04:30:58.243Z,423.14
2023-05-01T04:31:58.254Z,414.17
2023-05-01T04:32:58.215Z,425.04
2023-05-01T04:33:58.171Z,426.68
2023-05-01T04:34:58.188Z,422.34
2023-05-01T04:35:58.172Z,428.60
2023-05-01T04:36:58.168Z,436.77
2023-05-01T04:37:58.157Z,411.35
2023-05-01T04:38:58.183Z,400.68
2023-05-01T04:39:58.297Z,401.41
2023-05-01T04:40:58.105Z,397.09
2023-05-01T04:41:58.101Z,419.14
2023-05-01T04:42:58.085Z,416.25
2023-05-01T04:43:58.102Z,412.89
2023-05-01T04:44:58.114Z,397.09
2023-05-01T04:45:58.158Z,383.34
2023-05-01T04:46:58.074Z,381.58
2023-05-01T04:47:58.062Z,365.36
2023-05-01T04:48:58.028Z,357.37
2023-05-01T04:49:58.257Z,356.98
2023-05-01T04:50:58.015Z,371.17
2023-05-01T04:51:58.002Z,365.77
2023-05-01T04:52:58.006Z,368.24
2023-05-01T04:53:57.977Z,353.12
2023-05-01T04:54:58.062Z,334.68
2023-05-01T04:55:57.970Z,333.32
2023-05-01T04:56:57.956Z,334.68
2023-05-01T04:57:57.943Z,327.64
2023-05-01T04:58:57.937Z,322.47
2023-05-01T04:59:58.189Z,318.39
2023-05-01T05:00:57.942Z,314.71
2023-05-01T05:01:58.086Z,319.01
2023-05-01T05:02:57.976Z,309.93
2023-05-01T05:03:57.974Z,315.31
2023-05-01T05:04:57.897Z,327.31
2023-05-01T05:05:57.901Z,334.68
2023-05-01T05:06:57.886Z,344.20
2023-05-01T05:07:57.843Z,356.20
2023-05-01T05:08:57.822Z,350.47
2023-05-01T05:09:58.078Z,333.32
2023-05-01T05:10:57.820Z,331.29
2023-05-01T05:11:57.800Z,315.31
2023-05-01T05:12:57.869Z,301.64
2023-05-01T05:13:57.815Z,292.99
2023-05-01T05:14:57.789Z,295.64
2023-05-01T05:15:57.802Z,305.30
2023-05-01T05:16:58.068Z,307.60
2023-05-01T05:17:57.788Z,308.76
2023-05-01T05:18:57.769Z,300.25
2023-05-01T05:19:57.933Z,293.51
2023-05-01T05:20:57.728Z,280.90
2023-05-01T05:21:57.709Z,283.09
2023-05-01T05:22:57.710Z,284.32
2023-05-01T05:23:57.709Z,281.14
2023-05-01T05:24:57.676Z,282.11
2023-05-01T05:25:57.662Z,275.23
2023-05-01T05:26:57.657Z,270.00
2023-05-01T05:27:57.639Z,263.05
2023-05-01T05:28:57.636Z,257.65
2023-05-01T05:29:57.821Z,253.46
2023-05-01T05:30:57.633Z,255.64
2023-05-01T05:31:57.657Z,255.64
2023-05-01T05:32:57.636Z,250.93
2023-05-01T05:33:57.618Z,253.85
2023-05-01T05:34:57.578Z,249.59
2023-05-01T05:35:57.552Z,246.02
2023-05-01T05:36:57.551Z,243.09
2023-05-01T05:37:57.553Z,244.91
2023-05-01T05:38:57.564Z,243.82
2023-05-01T05:39:57.781Z,240.23
2023-05-01T05:40:57.522Z,234.21
2023-05-01T05:41:57.506Z,232.21
2023-05-01T05:42:57.522Z,235.90
2023-05-01T05:43:57.495Z,230.41
2023-05-01T05:44:57.508Z,234.38
2023-05-01T05:45:57.521Z,239.18
2023-05-01T05:46:57.494Z,239.00
2023-05-01T05:47:57.479Z,242.19
2023-05-01T05:48:57.440Z,248.26
2023-05-01T05:49:57.664Z,246.21
2023-05-01T05:50:57.441Z,246.76
2023-05-01T05:51:57.416Z,237.44
2023-05-01T05:52:57.433Z,233.71
2023-05-01T05:53:57.380Z,240.41
2023-05-01T05:54:57.391Z,241.48
2023-05-01T05:55:57.376Z,240.94
2023-05-01T05:56:57.365Z,238.65
2023-05-01T05:57:57.355Z,237.27
2023-05-01T05:58:57.335Z,235.73
2023-05-01T05:59:57.961Z,237.27
2023-05-01T06:00:57.316Z,237.27
2023-05-01T06:01:57.522Z,238.48
2023-05-01T06:02:57.404Z,247.32
2023-05-01T06:03:57.342Z,250.74
2023-05-01T06:04:57.286Z,255.04
2023-05-01T06:05:57.413Z,248.45
2023-05-01T06:06:57.297Z,254.64
2023-05-01T06:07:57.255Z,255.04
2023-05-01T06:08:57.269Z,259.08
2023-05-01T06:09:57.476Z,255.84
2023-05-01T06:10:57.231Z,248.26
2023-05-01T06:11:57.245Z,246.58
2023-05-01T06:13:10.969Z,242.73
2023-05-01T06:13:57.207Z,246.76
2023-05-01T06:14:57.194Z,242.91
2023-05-01T06:15:57.229Z,237.44
2023-05-01T06:16:57.162Z,241.48
2023-05-01T06:17:57.209Z,244.91
2023-05-01T06:18:57.137Z,244.55
2023-05-01T06:19:57.349Z,248.26
2023-05-01T06:20:57.139Z,255.64
2023-05-01T06:21:57.115Z,256.24
2023-05-01T06:22:57.100Z,261.15
2023-05-01T06:23:57.091Z,259.91
2023-05-01T06:24:57.095Z,261.78
2023-05-01T06:25:57.100Z,249.78
2023-05-01T06:26:57.076Z,246.39
2023-05-01T06:27:57.089Z,242.91
2023-05-01T06:28:57.048Z,239.71
2023-05-01T06:29:57.252Z,239.35
2023-05-01T06:30:57.039Z,242.91
2023-05-01T06:31:57.149Z,248.64
2023-05-01T06:32:57.030Z,252.48
2023-05-01T06:33:57.009Z,257.86
2023-05-01T06:34:56.995Z,266.48
2023-05-01T06:35:56.968Z,268.89
2023-05-01T06:36:56.991Z,268.45
2023-05-01T06:37:56.946Z,274.30
2023-05-01T06:38:56.955Z,274.53
2023-05-01T06:39:57.204Z,278.98
2023-05-01T06:40:56.923Z,293.51
2023-05-01T06:41:56.925Z,309.05
2023-05-01T06:42:56.909Z,316.84
2023-05-01T06:43:56.889Z,324.71
2023-05-01T06:44:56.891Z,326.66
2023-05-01T06:45:56.893Z,333.66
2023-05-01T06:46:56.889Z,335.37
2023-05-01T06:47:57.001Z,344.93
2023-05-01T06:48:56.841Z,339.55
2023-05-01T06:49:57.165Z,345.65
2023-05-01T06:50:56.832Z,343.84
2023-05-01T06:51:56.804Z,351.98
2023-05-01T06:52:56.807Z,350.47
2023-05-01T06:53:56.796Z,344.20
2023-05-01T06:54:56.807Z,330.62
2023-05-01T06:55:56.771Z,325.03
2023-05-01T06:56:56.788Z,334.34
2023-05-01T06:57:56.767Z,342.76
2023-05-01T06:58:56.756Z,352.36
2023-05-01T06:59:56.980Z,357.76
2023-05-01T07:00:56.812Z,344.56
2023-05-01T07:01:56.776Z,338.15
2023-05-01T07:02:56.971Z,356.98
2023-05-01T07:03:56.685Z,409.33
2023-05-01T07:04:56.709Z,437.64
2023-05-01T07:05:56.740Z,430.55
2023-05-01T07:06:56.676Z,415.73
2023-05-01T07:08:01.307Z,397.33
2023-05-01T07:08:56.644Z,389.18
2023-05-01T07:09:57.000Z,389.18
2023-05-01T07:10:56.643Z,378.91
2023-05-01T07:11:56.593Z,378.47
2023-05-01T07:12:56.591Z,387.37
2023-05-01T07:13:56.586Z,382.90
2023-05-01T07:14:56.592Z,375.86
2023-05-01T07:15:56.612Z,372.86
2023-05-01T07:16:56.733Z,372.01
2023-05-01T07:17:56.592Z,401.65
2023-05-01T07:18:56.544Z,420.20
2023-05-01T07:19:56.949Z,439.67
2023-05-01T07:20:56.538Z,463.27
2023-05-01T07:21:56.526Z,503.67
2023-05-01T07:22:56.574Z,522.69
2023-05-01T07:23:56.531Z,543.20
2023-05-01T07:24:56.488Z,537.92
2023-05-01T07:25:56.462Z,536.19
2023-05-01T07:26:56.474Z,532.75
2023-05-01T07:27:56.458Z,484.92
2023-05-01T07:28:56.462Z,433.64
2023-05-01T07:29:56.679Z,414.17
2023-05-01T07:30:56.424Z,433.64
2023-05-01T07:31:56.457Z,451.93
2023-05-01T07:32:56.440Z,461.02
2023-05-01T07:33:56.385Z,515.79
2023-05-01T07:34:56.370Z,549.95
2023-05-01T07:35:56.388Z,577.18
2023-05-01T07:36:56.359Z,584.80
2023-05-01T07:37:56.341Z,603.94
2023-05-01T07:38:56.333Z,616.84
2023-05-01T07:39:56.522Z,611.16
2023-05-01T07:40:56.325Z,579.19
2023-05-01T07:41:56.330Z,540.99
2023-05-01T07:42:56.291Z,505.97
2023-05-01T07:43:56.285Z,505.58
2023-05-01T07:44:56.288Z,534.89
2023-05-01T07:45:56.286Z,557.33
2023-05-01T07:46:56.250Z,560.15
2023-05-01T07:47:56.259Z,552.23
2023-05-01T07:48:56.245Z,559.21
2023-05-01T07:49:56.485Z,579.70
2023-05-01T07:50:56.221Z,595.28
2023-05-01T07:51:56.200Z,596.89
2023-05-01T07:52:56.194Z,605.59
2023-05-01T07:53:56.209Z,611.73
2023-05-01T07:54:56.172Z,619.14
2023-05-01T07:55:56.176Z,620.87
2023-05-01T07:56:56.168Z,632.70
2023-05-01T07:57:56.191Z,636.34
2023-05-01T07:58:56.131Z,634.51
2023-05-01T07:59:56.336Z,675.82
2023-05-01T08:00:56.099Z,755.68
2023-05-01T08:01:56.139Z,775.06
2023-05-01T08:02:56.174Z,734.07
2023-05-01T08:03:56.143Z,706.74
2023-05-01T08:04:56.118Z,719.76
2023-05-01T08:05:56.087Z,682.07
2023-05-01T08:06:56.189Z,656.46
2023-05-01T08:07:56.056Z,659.72
2023-05-01T08:08:56.038Z,662.35
2023-05-01T08:09:59.170Z,697.83
2023-05-01T08:10:56.010Z,703.00
2023-05-01T08:11:56.018Z,689.86
2023-05-01T08:12:56.018Z,641.25
2023-05-01T08:13:56.028Z,605.59
2023-05-01T08:14:55.978Z,590.52
2023-05-01T08:15:56.058Z,578.69
2023-05-01T08:16:55.953Z,603.94
2023-05-01T08:17:56.000Z,659.72
2023-05-01T08:18:55.943Z,705.24
2023-05-01T08:19:56.166Z,748.87
2023-05-01T08:20:55.910Z,764.37
2023-05-01T08:21:55.900Z,753.97
2023-05-01T08:22:55.906Z,720.54
2023-05-01T08:23:55.932Z,705.99
2023-05-01T08:24:55.865Z,678.59
2023-05-01T08:25:55.864Z,645.61
2023-05-01T08:26:55.845Z,608.92
2023-05-01T08:27:55.877Z,608.36
2023-05-01T08:28:55.835Z,629.10
2023-05-01T08:29:56.136Z,627.32
2023-05-01T08:30:55.852Z,619.14
2023-05-01T08:31:55.844Z,648.13
2023-05-01T08:32:55.929Z,673.09
2023-05-01T08:33:55.793Z,711.28
2023-05-01T08:34:55.788Z,735.70
2023-05-01T08:35:55.786Z,739.79
2023-05-01T08:36:55.762Z,747.19
2023-05-01T08:37:55.746Z,763.49
2023-05-01T08:38:55.771Z,770.12
2023-05-01T08:39:56.033Z,762.18
2023-05-01T08:40:55.717Z,748.45
2023-05-01T08:41:55.725Z,746.35
2023-05-01T08:42:55.705Z,776.41
2023-05-01T08:43:55.685Z,775.06
2023-05-01T08:44:55.689Z,814.45
2023-05-01T08:45:55.677Z,815.45
2023-05-01T08:46:55.749Z,835.95
2023-05-01T08:47:55.679Z,863.08
2023-05-01T08:48:55.642Z,849.30
2023-05-01T08:49:56.049Z,861.96
2023-05-01T08:50:55.626Z,888.44
2023-05-01T08:51:55.607Z,902.31
2023-05-01T08:52:55.585Z,905.99
2023-05-01T08:53:55.577Z,901.69
2023-05-01T08:54:55.571Z,881.96
2023-05-01T08:55:55.582Z,837.53
2023-05-01T08:56:55.542Z,829.69
2023-05-01T08:57:55.538Z,859.17
2023-05-01T08:58:55.533Z,924.25
2023-05-01T08:59:55.747Z,970.80
2023-05-01T09:00:55.492Z,1004.53
2023-05-01T09:01:55.510Z,1049.72
2023-05-01T09:02:55.519Z,1063.15
2023-05-01T09:03:55.506Z,1053.88
2023-05-01T09:04:55.471Z,1041.50
2023-05-01T09:05:55.491Z,1026.23
2023-05-01T09:06:55.524Z,1037.44
2023-05-01T09:07:55.438Z,1054.72
2023-05-01T09:08:55.426Z,1067.42
2023-05-01T09:09:55.640Z,1079.55
2023-05-01T09:10:55.400Z,1110.18
2023-05-01T09:11:55.520Z,1122.36
2023-05-01T09:12:55.374Z,1116.71
2023-05-01T09:13:55.413Z,1114.84
2023-05-01T09:14:55.388Z,1116.71
2023-05-01T09:15:55.405Z,1135.78
2023-05-01T09:16:55.429Z,1175.95
2023-05-01T09:17:55.450Z,1183.27
2023-05-01T09:18:55.316Z,1219.06
2023-05-01T09:19:55.446Z,1276.39
2023-05-01T09:20:55.315Z,1318.14
2023-05-01T09:21:55.356Z,1201.44
2023-05-01T09:22:55.282Z,1162.59
2023-05-01T09:23:55.315Z,1168.72
2023-05-01T09:24:55.256Z,1210.19
2023-05-01T09:25:55.257Z,1228.07
2023-05-01T09:26:55.271Z,1311.64
2023-05-01T09:27:55.247Z,1344.79
2023-05-01T09:28:55.223Z,1394.13
2023-05-01T09:29:55.341Z,1385.42
2023-05-01T09:30:55.211Z,1358.53
2023-05-01T09:31:55.221Z,1323.38
2023-05-01T09:32:55.220Z,1312.93
2023-05-01T09:33:55.206Z,1301.37
2023-05-01T09:34:55.158Z,1322.07
2023-05-01T09:35:55.196Z,1359.92
2023-05-01T09:36:55.183Z,1353.00
2023-05-01T09:37:55.145Z,1365.50
2023-05-01T09:38:55.174Z,1413.39
2023-05-01T09:39:55.279Z,1369.72
2023-05-01T09:40:55.093Z,1336.68
2023-05-01T09:41:55.102Z,1391.21
2023-05-01T09:42:55.088Z,1436.29
2023-05-01T09:43:55.085Z,1450.38
2023-05-01T09:44:55.067Z,1419.42
2023-05-01T09:45:55.125Z,1416.40
2023-05-01T09:46:55.038Z,1422.46
2023-05-01T09:47:55.087Z,1479.42
2023-05-01T09:48:55.033Z,1474.50
2023-05-01T09:49:55.130Z,1448.80
2023-05-01T09:50:55.000Z,1476.14
2023-05-01T09:51:55.020Z,1509.65
2023-05-01T09:52:54.984Z,1509.65
2023-05-01T09:53:54.979Z,1650.12
2023-05-01T09:54:54.951Z,1653.20
2023-05-01T09:55:54.950Z,1590.91
2023-05-01T09:56:54.959Z,1609.19
2023-05-01T09:57:54.940Z,1635.92
2023-05-01T09:58:54.926Z,1636.92
2023-05-01T09:59:55.056Z,1660.42
2023-05-01T10:00:54.925Z,1610.17
2023-05-01T10:01:54.926Z,1556.46
2023-05-01T10:02:55.067Z,1578.64
2023-05-01T10:03:55.037Z,1505.38
2023-05-01T10:04:54.878Z,1476.14
2023-05-01T10:05:54.858Z,1402.95
2023-05-01T10:06:54.971Z,1358.53
2023-05-01T10:07:54.857Z,1300.10
2023-05-01T10:08:54.826Z,1254.72
2023-05-01T10:09:55.054Z,1239.52
2023-05-01T10:10:54.812Z,1236.06
2023-05-01T10:11:54.816Z,1216.83
2023-05-01T10:12:54.777Z,1210.19
2023-05-01T10:13:54.803Z,1221.30
2023-05-01T10:14:54.777Z,1219.06
2023-05-01T10:15:54.750Z,1221.30
2023-05-01T10:16:54.845Z,1204.71
2023-05-01T10:17:55.145Z,1190.69
2023-05-01T10:18:54.716Z,1173.87
2023-05-01T10:19:55.032Z,1162.59
2023-05-01T10:20:54.733Z,1159.55
2023-05-01T10:21:54.708Z,1176.99
2023-05-01T10:22:54.678Z,1167.69
2023-05-01T10:23:54.668Z,1163.60
2023-05-01T10:24:54.663Z,1212.40
2023-05-01T10:25:54.671Z,1225.81
2023-05-01T10:26:54.650Z,1251.18
2023-05-01T10:27:54.656Z,1301.37
2023-05-01T10:28:54.620Z,1305.20
2023-05-01T10:29:55.068Z,1300.10
2023-05-01T10:30:54.638Z,1320.75
2023-05-01T10:31:54.733Z,1275.17
2023-05-01T10:32:54.644Z,1271.51
2023-05-01T10:33:54.590Z,1343.43
2023-05-01T10:34:54.750Z,1315.53
2023-05-01T10:35:54.554Z,1335.34
2023-05-01T10:36:54.560Z,1327.34
2023-05-01T10:37:54.572Z,1335.34
2023-05-01T10:38:54.514Z,1282.55
2023-05-01T10:39:54.552Z,1291.26
2023-05-01T10:40:54.500Z,1327.34
2023-05-01T10:41:54.578Z,1331.33
2023-05-01T10:42:54.490Z,1310.34
2023-05-01T10:43:54.463Z,1273.95
2023-05-01T10:44:54.733Z,1260.66
2023-05-01T10:45:54.551Z,1222.43
2023-05-01T10:46:54.678Z,1205.80
2023-05-01T10:47:54.498Z,1239.52
2023-05-01T10:48:54.413Z,1275.17
2023-05-01T10:49:54.400Z,1275.17
2023-05-01T10:50:54.392Z,1287.51
2023-05-01T10:51:54.395Z,1252.35
2023-05-01T10:52:54.370Z,1232.62
2023-05-01T10:53:54.613Z,1251.18
2023-05-01T10:54:54.592Z,1261.86
2023-05-01T10:55:54.356Z,1301.37
2023-05-01T10:56:54.367Z,1318.14
2023-05-01T10:57:54.337Z,1319.44
2023-05-01T10:58:54.407Z,1305.20
2023-05-01T10:59:54.327Z,1331.33
2023-05-01T11:00:54.293Z,1342.08
2023-05-01T11:01:54.355Z,1323.38
2023-05-01T11:02:54.296Z,1312.93
2023-05-01T11:03:54.259Z,1315.53
2023-05-01T11:04:54.416Z,1316.83
2023-05-01T11:05:54.290Z,1344.79
2023-05-01T11:06:54.290Z,1362.70
2023-05-01T11:07:54.217Z,1413.39
2023-05-01T11:08:54.211Z,1440.95
2023-05-01T11:09:54.223Z,1497.75
2023-05-01T11:10:54.194Z,1540.24
2023-05-01T11:11:54.199Z,1538.46
2023-05-01T11:12:54.174Z,1472.87
2023-05-01T11:13:54.173Z,1458.33
2023-05-01T11:14:54.585Z,1514.81
2023-05-01T11:15:54.167Z,1545.61
2023-05-01T11:16:54.244Z,1609.19
2023-05-01T11:17:54.201Z,1622.94
2023-05-01T11:18:54.122Z,1625.92
2023-05-01T11:19:54.104Z,1650.12
2023-05-01T11:20:54.102Z,1620.96
2023-05-01T11:21:54.110Z,1616.04
2023-05-01T11:22:54.069Z,1678.23
2023-05-01T11:23:54.061Z,1688.89
2023-05-01T11:24:54.077Z,1760.42
2023-05-01T11:25:54.044Z,1746.55
2023-05-01T11:26:54.029Z,1720.57
2023-05-01T11:27:54.031Z,1720.57
2023-05-01T11:28:54.024Z,1734.03
2023-05-01T11:29:54.003Z,1776.89
2023-05-01T11:30:54.018Z,1799.73
2023-05-01T11:31:54.076Z,1960.21
2023-05-01T11:32:54.056Z,1920.58
2023-05-01T11:33:53.965Z,1853.66
2023-05-01T11:34:54.004Z,1774.52
2023-05-01T11:35:53.936Z,1700.77
2023-05-01T11:36:53.950Z,1699.68
2023-05-01T11:37:53.921Z,1772.15
2023-05-01T11:38:53.906Z,1828.18
2023-05-01T11:39:53.906Z,1854.95
2023-05-01T11:40:53.890Z,1941.60
2023-05-01T11:41:53.936Z,1966.00
2023-05-01T11:42:53.877Z,2033.64
2023-05-01T11:43:53.867Z,2212.98
2023-05-01T11:44:54.065Z,2207.47
2023-05-01T11:45:53.878Z,2164.36
2023-05-01T11:46:53.862Z,2107.76
2023-05-01T11:47:53.856Z,2164.36
2023-05-01T11:48:53.809Z,2259.98
2023-05-01T11:49:53.795Z,2440.37
2023-05-01T11:50:53.806Z,2429.22
2023-05-01T11:51:53.780Z,2413.79
2023-05-01T11:52:53.779Z,2339.49
2023-05-01T11:53:53.770Z,2275.45
2023-05-01T11:54:53.750Z,2246.62
2023-05-01T11:55:53.757Z,2254.24
2023-05-01T11:56:53.744Z,2166.12
2023-05-01T11:57:53.731Z,2074.88
2023-05-01T11:58:53.716Z,1945.87
2023-05-01T11:59:53.701Z,1839.56
2023-05-01T12:00:53.689Z,1816.94
2023-05-01T12:01:53.774Z,1800.95
2023-05-01T12:02:53.864Z,1845.94
2023-05-01T12:03:53.722Z,1881.19
2023-05-01T12:04:53.767Z,1840.83
2023-05-01T12:05:53.647Z,1753.46
2023-05-01T12:06:53.703Z,1710.61
2023-05-01T12:07:53.637Z,1665.62
2023-05-01T12:08:53.609Z,1610.17
2023-05-01T12:09:53.605Z,1547.41
2023-05-01T12:10:53.604Z,1568.40
2023-05-01T12:11:53.617Z,1561.95
2023-05-01T12:12:53.589Z,1559.20
2023-05-01T12:13:53.559Z,1591.86
2023-05-01T12:14:53.568Z,1618.99
2023-05-01T12:15:53.556Z,1537.57
2023-05-01T12:16:53.632Z,1479.42
2023-05-01T12:17:53.574Z,1430.11
2023-05-01T12:18:53.514Z,1451.96
2023-05-01T12:19:53.515Z,1398.53
2023-05-01T12:20:53.524Z,1459.93
2023-05-01T12:21:53.496Z,1414.89